Time;durP1;ratioP1;P1;durP2;ratioP2;P2;SDS_P1;SDS_P2;PMS_P1;PMS_P2;Temp;Humidity;BMP_temperature;BMP_pressure;BME280_temperature;BME280_humidity;BME280_pressure;Samples;Min_cycle;Max_cycle;Signal;HPM_P1;HPM_P2
2022/06/05 10:36:40;;;;;;;3.30;1.17;;;25.30;93.40;;;;;;6110637;23;20058;-81
2022/06/05 10:39:36;;;;;;;3.45;1.15;;;24.90;93.80;;;;;;6136090;23;20328;-78
2022/06/05 10:42:36;;;;;;;3.13;1.15;;;24.50;95.20;;;;;;6135884;23;20139;-78
2022/06/05 10:45:04;;;;;;;6.18;1.42;;;24.20;96.10;;;;;;6032386;23;20003;-77
2022/06/05 10:47:49;;;;;;;4.00;1.75;;;23.80;98.10;;;;;;6138819;23;20009;-77
2022/06/05 10:50:22;;;;;;;4.53;1.75;;;23.60;99.30;;;;;;6116616;23;20232;-77
2022/06/05 10:53:12;;;;;;;4.47;2.10;;;23.20;99.90;;;;;;6135031;23;20005;-77
2022/06/05 10:55:49;;;;;;;5.13;2.63;;;22.80;99.90;;;;;;6135448;23;20200;-78
2022/06/05 10:58:34;;;;;;;4.85;2.75;;;22.40;99.90;;;;;;6135751;23;20314;-78
2022/06/05 11:01:12;;;;;;;6.78;3.17;;;21.80;99.90;;;;;;6115352;23;20025;-77
2022/06/05 11:04:22;;;;;;;4.50;2.67;;;21.60;99.90;;;;;;6138103;23;19997;-77
2022/06/05 11:07:29;;;;;;;5.47;2.28;;;21.60;99.90;;;;;;6119563;23;20010;-77
2022/06/05 11:10:05;;;;;;;4.35;2.35;;;21.60;99.90;;;;;;6164812;23;20002;-78
2022/06/05 11:15:57;;;;;;;6.43;2.75;;;21.50;99.90;;;;;;6164047;23;20138;-78
2022/06/05 11:18:43;;;;;;;5.38;2.40;;;21.30;99.90;;;;;;6165051;23;20065;-77
2022/06/05 11:21:10;;;;;;;3.78;2.47;;;21.30;99.90;;;;;;6164932;23;20012;-77
2022/06/05 11:23:40;;;;;;;6.32;2.50;;;21.30;99.90;;;;;;6165427;23;20053;-78
2022/06/05 11:26:38;;;;;;;4.13;2.38;;;21.20;99.90;;;;;;6165211;23;20005;-77
2022/06/05 11:29:20;;;;;;;;;;;21.20;99.90;;;;;;6165220;23;20042;-77
2022/06/05 11:32:05;;;;;;;5.30;2.50;;;21.20;99.90;;;;;;6136287;23;19911;-78
2022/06/05 11:34:40;;;;;;;6.28;2.40;;;21.30;99.90;;;;;;6164734;23;20056;-77
2022/06/05 11:37:34;;;;;;;4.88;2.40;;;21.40;99.90;;;;;;6165165;23;20323;-80
2022/06/05 11:40:28;;;;;;;4.95;2.10;;;21.60;99.90;;;;;;6151031;23;20025;-79
2022/06/05 11:43:14;;;;;;;5.38;2.00;;;21.80;99.90;;;;;;6164563;23;20005;-78
2022/06/05 11:45:55;;;;;;;5.10;2.30;;;22.10;99.90;;;;;;6163844;23;20022;-78
2022/06/05 11:48:28;;;;;;;3.22;2.17;;;22.40;99.90;;;;;;6164795;23;20017;-78
2022/06/05 11:51:05;;;;;;;4.90;1.88;;;22.60;99.90;;;;;;6164193;23;20006;-76
2022/06/05 11:54:09;;;;;;;5.63;2.17;;;23.00;99.90;;;;;;6164824;23;20306;-77
2022/06/05 11:56:39;;;;;;;4.55;1.88;;;24.30;99.90;;;;;;6164660;23;20001;-78
2022/06/05 11:59:32;;;;;;;7.53;1.90;;;26.30;97.70;;;;;;6164807;23;20006;-78
2022/06/05 12:02:22;;;;;;;4.57;1.75;;;27.50;93.80;;;;;;6137330;23;20109;-78
2022/06/05 12:04:52;;;;;;;4.68;1.50;;;29.30;91.60;;;;;;6164087;23;20006;-78
2022/06/05 12:07:19;;;;;;;2.58;1.20;;;31.30;87.40;;;;;;6164667;23;20009;-79
2022/06/05 12:09:55;;;;;;;4.75;1.40;;;32.30;82.30;;;;;;6164369;23;20275;-79
2022/06/05 12:12:32;;;;;;;2.80;1.40;;;32.50;81.90;;;;;;6165058;23;20049;-78
2022/06/05 12:15:19;;;;;;;5.07;1.40;;;32.70;79.80;;;;;;6164034;23;20005;-79
2022/06/05 12:18:11;;;;;;;3.33;1.38;;;32.80;77.80;;;;;;6163566;23;20303;-79
2022/06/05 12:20:44;;;;;;;2.75;1.38;;;33.00;77.30;;;;;;6164509;23;20013;-79
2022/06/05 12:23:31;;;;;;;3.40;1.30;;;33.60;75.60;;;;;;6164631;23;20009;-79
2022/06/05 12:26:06;;;;;;;3.35;1.23;;;33.50;74.60;;;;;;6163810;23;20089;-79
2022/06/05 12:28:39;;;;;;;3.15;1.17;;;32.90;75.90;;;;;;6138333;23;20009;-79
2022/06/05 12:31:22;;;;;;;2.97;1.00;;;32.00;77.50;;;;;;6137224;23;20065;-78
2022/06/05 12:34:00;;;;;;;3.17;1.27;;;31.70;78.10;;;;;;6163526;23;20008;-76
2022/06/05 12:36:34;;;;;;;3.47;1.48;;;31.00;79.30;;;;;;6164407;23;20013;-76
2022/06/05 12:39:13;;;;;;;2.50;1.40;;;30.50;81.50;;;;;;6137734;23;20298;-77
2022/06/05 12:41:47;;;;;;;3.88;1.00;;;29.60;82.40;;;;;;6164851;23;20137;-78
2022/06/05 12:44:26;;;;;;;3.97;1.17;;;29.10;82.20;;;;;;6164307;23;20111;-76
2022/06/05 12:46:58;;;;;;;4.32;1.42;;;29.30;82.70;;;;;;6137397;23;20021;-77
2022/06/05 12:49:39;;;;;;;3.55;1.20;;;29.40;78.40;;;;;;6164219;23;20012;-77
2022/06/05 12:52:23;;;;;;;4.70;1.30;;;31.00;78.50;;;;;;6163671;23;20005;-78
2022/06/05 12:55:16;;;;;;;4.18;1.20;;;33.70;71.50;;;;;;6163586;23;20048;-77
2022/06/05 12:57:45;;;;;;;3.17;1.30;;;34.40;68.40;;;;;;6146413;23;20010;-78
2022/06/05 13:00:35;;;;;;;6.22;1.52;;;33.90;68.70;;;;;;6163042;23;20021;-78
2022/06/05 13:03:22;;;;;;;4.45;1.27;;;34.50;67.50;;;;;;6163428;23;20004;-77
2022/06/05 13:05:57;;;;;;;5.03;1.30;;;34.10;67.10;;;;;;6137660;23;20014;-78
2022/06/05 13:08:50;;;;;;;3.35;1.02;;;33.90;66.60;;;;;;6164277;23;20317;-78
2022/06/05 13:11:31;;;;;;;2.33;0.75;;;33.10;68.00;;;;;;6152328;23;20017;-78
2022/06/05 13:14:31;;;;;;;3.00;1.13;;;34.30;67.90;;;;;;6163586;23;20012;-77
2022/06/05 13:16:57;;;;;;;5.95;1.63;;;36.00;65.20;;;;;;6136927;23;20084;-78
2022/06/05 13:19:26;;;;;;;7.47;1.85;;;35.40;66.10;;;;;;6164142;23;20067;-78
2022/06/05 13:22:15;;;;;;;4.35;1.40;;;34.70;66.60;;;;;;6163368;23;20005;-78
2022/06/05 13:24:49;;;;;;;4.22;1.48;;;33.50;66.30;;;;;;6164020;23;20236;-77
2022/06/05 13:27:18;;;;;;;5.68;1.40;;;31.20;70.70;;;;;;6163943;23;20060;-77
2022/06/05 13:30:04;;;;;;;4.22;1.52;;;29.90;74.30;;;;;;6164113;23;20009;-77
2022/06/05 13:32:55;;;;;;;3.78;0.88;;;29.70;75.00;;;;;;6163642;23;20016;-77
2022/06/05 13:35:42;;;;;;;5.63;1.40;;;30.00;74.00;;;;;;6137881;23;20065;-77
2022/06/05 13:38:24;;;;;;;5.15;1.05;;;30.50;73.40;;;;;;6163456;23;20064;-77
2022/06/05 13:40:58;;;;;;;2.90;1.20;;;30.90;72.00;;;;;;6163568;23;20322;-77
2022/06/05 13:43:35;;;;;;;3.83;1.60;;;30.90;72.60;;;;;;6164358;23;20002;-78
2022/06/05 13:46:12;;;;;;;3.53;1.20;;;30.00;72.90;;;;;;6162345;23;20264;-78
2022/06/05 13:48:43;;;;;;;3.90;1.20;;;29.70;75.00;;;;;;6163930;23;20456;-77
2022/06/05 13:51:15;;;;;;;3.97;1.30;;;29.60;75.40;;;;;;6163389;23;20002;-77
2022/06/05 13:53:52;;;;;;;4.63;1.45;;;29.20;75.80;;;;;;6138295;23;20002;-75
2022/06/05 13:56:18;;;;;;;3.95;1.30;;;29.40;76.90;;;;;;6164252;23;20010;-77
2022/06/05 13:58:59;;;;;;;3.83;1.13;;;30.00;74.50;;;;;;6163874;23;20021;-77
2022/06/05 14:01:36;;;;;;;2.97;1.20;;;30.20;73.40;;;;;;6165130;23;20065;-78
2022/06/05 14:04:21;;;;;;;2.90;1.40;;;29.80;74.00;;;;;;6165497;23;20001;-76
2022/06/05 14:07:08;;;;;;;3.55;1.00;;;29.90;74.80;;;;;;6139754;23;20013;-78
2022/06/05 14:09:33;;;;;;;2.40;1.10;;;29.90;74.70;;;;;;6165875;23;20338;-77
2022/06/05 14:11:59;;;;;;;3.83;1.17;;;29.30;76.30;;;;;;6165300;23;20049;-78
2022/06/05 14:14:43;;;;;;;4.20;1.20;;;29.20;76.60;;;;;;6166294;23;19996;-78
2022/06/05 14:17:27;;;;;;;4.28;1.40;;;28.50;78.30;;;;;;6164952;23;20025;-77
2022/06/05 14:20:07;;;;;;;3.92;1.27;;;27.70;80.40;;;;;;6165144;23;20283;-76
2022/06/05 14:22:41;;;;;;;3.60;1.10;;;27.40;80.60;;;;;;6165997;23;20049;-79
2022/06/05 14:25:21;;;;;;;2.65;1.00;;;27.60;81.20;;;;;;6164933;23;20282;-78
2022/06/05 14:27:56;;;;;;;3.80;1.38;;;27.60;81.90;;;;;;6165561;23;20006;-77
2022/06/05 14:30:25;;;;;;;3.90;1.08;;;27.30;81.00;;;;;;6165505;23;20021;-78
2022/06/05 14:32:52;;;;;;;4.15;1.30;;;27.00;81.90;;;;;;6165192;23;20002;-78
2022/06/05 14:35:20;;;;;;;3.38;1.33;;;27.00;82.30;;;;;;6165194;23;20330;-77
2022/06/05 14:37:56;;;;;;;3.70;0.90;;;26.90;83.30;;;;;;6165961;23;20005;-78
2022/06/05 14:40:25;;;;;;;3.03;1.00;;;26.60;83.50;;;;;;6139704;23;20164;-77
2022/06/05 14:42:57;;;;;;;2.75;1.10;;;26.50;84.10;;;;;;6114528;23;20048;-77
2022/06/05 14:45:40;;;;;;;2.60;1.00;;;26.40;84.00;;;;;;6138737;23;20080;-78
2022/06/05 14:48:17;;;;;;;3.25;0.95;;;26.10;84.00;;;;;;6165307;23;20008;-77
2022/06/05 14:50:56;;;;;;;2.03;0.90;;;25.80;85.40;;;;;;6165551;23;20002;-80
2022/06/05 14:53:38;;;;;;;1.83;0.90;;;25.40;86.70;;;;;;6165798;23;20002;-79
2022/06/05 14:59:20;;;;;;;2.13;0.70;;;25.10;88.30;;;;;;6169529;23;20006;-79
2022/06/05 15:02:02;;;;;;;2.65;1.00;;;25.40;87.70;;;;;;6154629;23;20014;-78
2022/06/05 15:04:47;;;;;;;2.20;1.10;;;25.30;88.00;;;;;;6156560;23;20021;-78
2022/06/05 15:07:27;;;;;;;2.42;1.05;;;25.40;87.60;;;;;;6173000;23;20032;-78
2022/06/05 15:09:59;;;;;;;2.55;1.02;;;25.50;86.70;;;;;;6172229;23;20040;-79
2022/06/05 15:12:44;;;;;;;3.55;1.40;;;26.10;86.60;;;;;;6169040;23;20024;-78
2022/06/05 15:15:17;;;;;;;3.35;1.17;;;26.40;85.80;;;;;;6138710;23;20291;-79
2022/06/05 15:17:56;;;;;;;2.67;1.40;;;26.60;84.20;;;;;;6165452;23;20061;-79
2022/06/05 15:20:44;;;;;;;3.25;1.38;;;26.80;84.60;;;;;;6165334;23;20013;-77
2022/06/05 15:23:38;;;;;;;2.53;1.17;;;26.90;84.10;;;;;;6145786;23;20021;-77
2022/06/05 15:26:19;;;;;;;2.58;1.10;;;27.10;83.70;;;;;;6069459;23;20028;-79
2022/06/05 15:28:45;;;;;;;3.90;1.50;;;27.30;83.80;;;;;;6135785;23;20006;-78
2022/06/05 15:31:43;;;;;;;3.90;1.60;;;27.40;83.20;;;;;;6116876;23;20009;-78
2022/06/05 15:34:18;;;;;;;3.42;1.40;;;27.00;82.80;;;;;;6055892;23;20006;-78
2022/06/05 15:36:56;;;;;;;4.90;1.10;;;26.20;85.00;;;;;;6132021;23;20299;-78
2022/06/05 15:39:43;;;;;;;2.17;0.93;;;25.40;87.70;;;;;;6139013;23;20005;-78
2022/06/05 15:42:23;;;;;;;2.58;0.95;;;24.60;90.00;;;;;;6085913;23;20025;-78
2022/06/05 15:44:57;;;;;;;5.60;1.50;;;22.80;99.90;;;;;;6109562;23;20016;-79
2022/06/05 15:47:58;;;;;;;7.95;1.90;;;20.00;99.90;;;;;;6137372;23;20072;-79
2022/06/05 15:50:47;;;;;;;3.17;1.58;;;19.10;99.90;;;;;;6133238;23;20291;-78
2022/06/05 15:53:22;;;;;;;5.05;1.65;;;18.50;99.90;;;;;;6114097;23;20010;-78
2022/06/05 15:56:25;;;;;;;3.97;1.90;;;18.40;99.90;;;;;;6138906;23;20001;-78
2022/06/05 15:59:15;;;;;;;5.53;2.33;;;18.30;99.90;;;;;;6164749;23;19997;-79
2022/06/05 16:01:50;;;;;;;7.47;2.75;;;18.20;99.90;;;;;;6164467;23;20013;-80
2022/06/05 16:04:26;;;;;;;6.47;3.17;;;18.30;99.90;;;;;;6164000;23;20283;-81
2022/06/05 16:07:06;;;;;;;6.78;3.67;;;18.60;99.90;;;;;;6164747;23;20060;-80
2022/06/05 16:09:40;;;;;;;6.55;3.78;;;18.90;99.90;;;;;;6164960;23;20064;-79
2022/06/05 16:12:25;;;;;;;6.63;3.60;;;19.00;99.90;;;;;;6164153;23;20013;-79
2022/06/05 16:15:09;;;;;;;7.05;3.55;;;19.20;99.90;;;;;;6114587;23;20011;-79
2022/06/05 16:17:57;;;;;;;7.20;3.35;;;19.40;99.90;;;;;;6164267;23;20319;-80
2022/06/05 16:20:49;;;;;;;5.63;2.30;;;19.70;99.90;;;;;;6138767;23;20012;-76
2022/06/05 16:23:42;;;;;;;4.35;2.50;;;19.50;99.90;;;;;;6163677;23;20353;-78
2022/06/05 16:26:32;;;;;;;4.63;2.28;;;19.90;99.90;;;;;;6163814;23;20283;-80
2022/06/05 16:29:06;;;;;;;5.05;1.60;;;19.70;99.90;;;;;;6138153;23;20002;-77
2022/06/05 16:31:40;;;;;;;5.75;2.17;;;19.70;99.90;;;;;;6138317;23;20180;-77
2022/06/05 16:34:21;;;;;;;4.82;2.13;;;19.60;99.90;;;;;;6164218;23;20002;-78
2022/06/05 16:39:43;;;;;;;6.22;1.98;;;20.00;99.90;;;;;;6164598;23;20008;-77
2022/06/05 16:42:23;;;;;;;4.53;1.88;;;20.50;99.90;;;;;;6163597;23;20001;-77
2022/06/05 16:45:05;;;;;;;5.22;1.90;;;20.40;99.90;;;;;;6138457;23;20083;-78
2022/06/05 16:47:30;;;;;;;3.55;1.60;;;20.20;99.90;;;;;;6164282;23;20047;-79
2022/06/05 16:50:03;;;;;;;4.18;2.10;;;20.10;99.90;;;;;;6164245;23;20002;-79
2022/06/05 16:52:47;;;;;;;6.25;1.73;;;20.10;99.90;;;;;;6164423;23;20002;-77
2022/06/05 16:55:57;;;;;;;4.50;1.85;;;20.40;99.90;;;;;;6163337;23;20317;-79
2022/06/05 16:58:30;;;;;;;5.13;1.63;;;20.60;99.90;;;;;;6127240;23;20006;-78
2022/06/05 17:01:12;;;;;;;5.03;2.00;;;20.40;99.90;;;;;;6152672;23;20014;-78
2022/06/05 17:03:41;;;;;;;4.75;2.20;;;20.40;99.90;;;;;;6134675;23;20165;-77
2022/06/05 17:06:34;;;;;;;3.53;2.00;;;20.70;99.90;;;;;;6133739;23;20169;-78
2022/06/05 17:09:04;;;;;;;5.22;2.42;;;20.70;99.90;;;;;;6134207;23;20002;-78
2022/06/05 17:11:34;;;;;;;5.95;2.13;;;20.90;99.90;;;;;;6134254;23;20177;-79
2022/06/05 17:14:02;;;;;;;6.72;1.90;;;20.90;99.90;;;;;;6133565;23;20252;-77
2022/06/05 17:16:37;;;;;;;3.87;1.80;;;20.90;99.90;;;;;;6134177;23;20040;-78
2022/06/05 17:19:20;;;;;;;5.97;2.08;;;20.90;99.90;;;;;;6133746;23;20384;-77
2022/06/05 17:22:01;;;;;;;2.33;1.30;;;20.90;99.90;;;;;;6134841;23;20006;-77
2022/06/05 17:24:30;;;;;;;7.47;1.58;;;21.00;99.90;;;;;;6134431;23;20315;-78
2022/06/05 17:27:20;;;;;;;3.55;1.33;;;21.30;99.90;;;;;;6134474;23;20014;-77
2022/06/05 17:30:30;;;;;;;3.25;1.40;;;21.60;99.90;;;;;;6134791;23;20009;-77
2022/06/05 17:33:10;;;;;;;3.95;1.40;;;22.60;99.90;;;;;;6106595;23;20010;-78
2022/06/05 17:35:45;;;;;;;3.78;1.42;;;23.60;99.90;;;;;;6158083;23;20074;-78
2022/06/05 17:38:46;;;;;;;1.92;0.60;;;24.90;99.90;;;;;;6134085;23;20002;-76
2022/06/05 17:41:27;;;;;;;1.58;0.50;;;25.30;99.90;;;;;;6133961;23;20022;-78
2022/06/05 17:44:20;;;;;;;2.88;0.60;;;27.50;97.30;;;;;;6134402;23;20049;-77
2022/06/05 17:47:04;;;;;;;1.48;0.47;;;29.40;91.80;;;;;;6133820;23;20038;-77
2022/06/05 17:49:59;;;;;;;1.60;0.40;;;30.60;82.60;;;;;;6134182;23;20002;-77
2022/06/05 17:52:26;;;;;;;1.75;0.68;;;30.90;82.40;;;;;;6082153;23;20046;-78
2022/06/05 17:55:00;;;;;;;1.27;0.50;;;31.80;77.70;;;;;;6108980;23;20066;-78
2022/06/05 17:57:32;;;;;;;2.35;0.52;;;32.60;74.90;;;;;;6133432;23;20191;-77
2022/06/05 18:00:15;;;;;;;1.85;0.57;;;32.10;81.00;;;;;;6134203;23;20200;-77
2022/06/05 18:03:06;;;;;;;2.28;0.82;;;31.20;75.80;;;;;;6107783;23;20129;-77
2022/06/05 18:05:36;;;;;;;1.13;0.30;;;30.80;74.90;;;;;;6108711;23;20006;-77
2022/06/05 18:08:15;;;;;;;0.82;0.25;;;29.20;76.30;;;;;;6133267;23;20052;-77
2022/06/05 18:10:46;;;;;;;2.08;0.35;;;28.40;77.40;;;;;;6134344;23;20009;-77
2022/06/05 18:13:17;;;;;;;0.73;0.30;;;27.20;80.50;;;;;;6133735;23;20284;-78
2022/06/05 18:15:51;;;;;;;1.15;0.43;;;26.80;81.30;;;;;;6125437;23;20034;-77
2022/06/05 18:18:19;;;;;;;1.17;0.40;;;26.30;85.90;;;;;;6104284;23;20129;-77
2022/06/05 18:20:52;;;;;;;1.75;0.50;;;25.80;83.30;;;;;;6104937;23;19994;-77
2022/06/05 18:23:27;;;;;;;1.10;0.30;;;25.70;82.30;;;;;;6078989;23;20002;-78
2022/06/05 18:25:59;;;;;;;1.02;0.30;;;26.50;78.10;;;;;;6105103;23;20011;-77
2022/06/05 18:28:36;;;;;;;1.75;0.30;;;26.50;79.20;;;;;;6104568;23;20002;-77
2022/06/05 18:31:18;;;;;;;1.70;0.30;;;26.10;79.50;;;;;;6104210;23;20077;-78
2022/06/05 18:33:53;;;;;;;1.33;0.30;;;25.30;81.00;;;;;;6105072;23;20006;-79
2022/06/05 18:39:16;;;;;;;1.05;0.32;;;23.80;86.30;;;;;;6162957;23;20001;-76
2022/06/05 18:41:45;;;;;;;1.52;0.30;;;23.10;87.80;;;;;;6163527;23;20045;-77
2022/06/05 18:44:21;;;;;;;2.00;0.40;;;22.50;89.60;;;;;;6163300;23;20005;-78
2022/06/05 18:49:36;;;;;;;1.85;0.47;;;21.90;91.40;;;;;;6165755;23;20211;-78
2022/06/05 18:52:21;;;;;;;1.45;0.30;;;21.50;92.00;;;;;;6165849;23;20002;-77
2022/06/05 18:54:50;;;;;;;2.97;0.40;;;21.30;92.70;;;;;;6165334;23;20001;-78
2022/06/05 18:57:22;;;;;;;1.25;0.45;;;21.20;92.90;;;;;;6165130;23;20012;-77
2022/06/05 18:59:54;;;;;;;0.88;0.35;;;21.10;93.90;;;;;;6139591;23;20002;-80
2022/06/05 19:02:24;;;;;;;2.33;0.88;;;20.90;93.90;;;;;;6163688;23;20037;-79
2022/06/05 19:04:53;;;;;;;2.70;0.50;;;20.70;93.90;;;;;;6165413;23;20013;-78
2022/06/05 19:07:32;;;;;;;4.60;0.45;;;20.50;94.80;;;;;;6164865;23;20017;-78
2022/06/05 19:10:01;;;;;;;1.77;0.60;;;20.30;94.40;;;;;;6165244;23;20119;-77
2022/06/05 19:12:45;;;;;;;1.35;0.38;;;20.20;95.20;;;;;;6164567;23;20330;-77
2022/06/05 19:15:39;;;;;;;1.90;0.68;;;20.20;95.40;;;;;;6137657;23;20064;-78
2022/06/05 19:18:14;;;;;;;1.88;0.50;;;20.20;95.50;;;;;;6164987;23;20024;-78
2022/06/05 19:20:46;;;;;;;1.92;0.50;;;20.10;96.50;;;;;;6139699;23;20006;-78
2022/06/05 19:23:31;;;;;;;2.17;0.90;;;20.00;97.40;;;;;;6165833;23;20048;-79
2022/06/05 19:26:01;;;;;;;3.20;0.85;;;19.80;97.80;;;;;;6169575;23;20434;-77
2022/06/05 19:28:33;;;;;;;2.40;0.90;;;19.60;98.60;;;;;;6142062;23;20020;-78
2022/06/05 19:31:01;;;;;;;1.73;0.90;;;19.40;99.40;;;;;;6164271;23;20319;-78
2022/06/05 19:33:37;;;;;;;1.73;0.87;;;19.20;99.90;;;;;;6164387;23;20201;-77
2022/06/05 19:39:05;;;;;;;2.70;0.90;;;19.10;99.90;;;;;;6165190;23;20002;-77
2022/06/05 19:41:33;;;;;;;2.42;1.00;;;19.00;99.90;;;;;;6164304;23;19997;-78
2022/06/05 19:44:14;;;;;;;1.77;0.90;;;18.90;99.90;;;;;;6164974;23;20016;-77
2022/06/05 19:46:41;;;;;;;2.50;0.70;;;18.80;99.90;;;;;;6164324;23;20060;-79
2022/06/05 19:49:31;;;;;;;2.28;0.85;;;18.70;99.90;;;;;;6139230;23;20005;-78
2022/06/05 19:51:59;;;;;;;2.97;1.30;;;18.70;99.90;;;;;;6165424;23;20045;-78
2022/06/05 19:54:28;;;;;;;3.47;1.00;;;18.60;99.90;;;;;;6164121;23;20002;-77
2022/06/05 19:57:17;;;;;;;2.42;1.02;;;18.50;99.90;;;;;;6164781;23;20052;-78
2022/06/05 20:00:04;;;;;;;3.03;1.00;;;18.40;99.90;;;;;;6165238;23;20238;-78
2022/06/05 20:02:36;;;;;;;4.25;1.00;;;18.40;99.90;;;;;;6165412;23;20325;-77
2022/06/05 20:05:02;;;;;;;2.33;0.88;;;18.30;99.90;;;;;;6138989;23;20009;-77
2022/06/05 20:07:36;;;;;;;2.78;1.00;;;18.30;99.90;;;;;;6139911;23;20299;-78
2022/06/05 20:10:28;;;;;;;1.75;0.65;;;18.30;99.90;;;;;;6140052;23;20005;-80
2022/06/05 20:13:26;;;;;;;2.50;1.02;;;18.10;99.90;;;;;;6164982;23;20010;-78
2022/06/05 20:16:01;;;;;;;2.40;0.88;;;18.10;99.90;;;;;;6149961;23;20020;-77
2022/06/05 20:18:32;;;;;;;3.05;1.05;;;18.00;99.90;;;;;;6138244;23;20053;-78
2022/06/05 20:21:18;;;;;;;4.13;1.20;;;18.00;99.90;;;;;;6165940;23;20196;-79
2022/06/05 20:23:58;;;;;;;3.35;1.42;;;17.90;99.90;;;;;;6165926;23;20006;-78
2022/06/05 20:26:29;;;;;;;4.05;1.50;;;17.80;99.90;;;;;;6164386;23;20161;-80
2022/06/05 20:29:04;;;;;;;3.67;1.52;;;17.70;99.90;;;;;;6165512;23;20012;-79
2022/06/05 20:31:33;;;;;;;3.22;1.70;;;17.60;99.90;;;;;;6164397;23;20014;-78
2022/06/05 20:34:26;;;;;;;4.18;1.38;;;17.50;99.90;;;;;;6165972;23;20032;-78
2022/06/05 20:37:08;;;;;;;2.53;1.30;;;17.50;99.90;;;;;;6164884;23;20009;-79
2022/06/05 20:39:45;;;;;;;2.67;1.65;;;17.40;99.90;;;;;;6165050;23;20216;-78
2022/06/05 20:42:22;;;;;;;5.85;1.80;;;17.30;99.90;;;;;;6139736;23;20279;-78
2022/06/05 20:45:15;;;;;;;7.97;1.83;;;17.30;99.90;;;;;;6139840;23;20005;-79
2022/06/05 20:47:44;;;;;;;3.00;1.50;;;17.20;99.90;;;;;;6137540;23;20021;-78
2022/06/05 20:50:41;;;;;;;6.28;1.55;;;17.10;99.90;;;;;;6165517;23;20008;-78
2022/06/05 20:53:33;;;;;;;2.65;1.58;;;17.10;99.90;;;;;;6165803;23;20002;-78
2022/06/05 20:56:05;;;;;;;4.32;2.05;;;17.10;99.90;;;;;;5995212;23;20012;-79
2022/06/05 20:58:53;;;;;;;3.35;1.85;;;17.10;99.90;;;;;;6017818;23;20012;-77
2022/06/05 21:01:20;;;;;;;4.85;2.10;;;17.20;99.90;;;;;;6016766;23;20020;-77
2022/06/05 21:09:24;;;;;;;3.10;1.27;;;17.20;99.90;;;;;;5997201;23;20012;-77
2022/06/05 21:17:27;;;;;;;2.77;1.53;;;17.30;99.90;;;;;;6021397;23;20020;-78
2022/06/05 21:20:06;;;;;;;2.97;1.95;;;17.20;99.90;;;;;;5999129;23;20071;-79
2022/06/05 21:22:37;;;;;;;4.28;2.33;;;17.10;99.90;;;;;;5998396;23;20182;-78
2022/06/05 21:25:18;;;;;;;3.28;1.67;;;17.00;99.90;;;;;;5998010;23;20052;-78
2022/06/05 21:27:48;;;;;;;4.63;1.70;;;17.00;99.90;;;;;;6017948;23;20320;-77
2022/06/05 21:30:16;;;;;;;3.88;1.23;;;17.00;99.90;;;;;;6020416;23;20008;-78
2022/06/05 21:32:54;;;;;;;4.67;1.43;;;17.10;99.90;;;;;;6068187;23;20006;-77
2022/06/05 21:35:26;;;;;;;;;;;17.10;99.90;;;;;;6138095;23;20002;-76
2022/06/05 21:38:38;;;;;;;3.58;1.30;;;17.20;99.90;;;;;;6164693;23;19908;-77
2022/06/05 21:41:37;;;;;;;2.97;1.45;;;17.20;99.90;;;;;;6148378;23;20005;-79
2022/06/05 21:44:19;;;;;;;4.70;1.25;;;17.20;99.90;;;;;;6164799;23;20033;-77
2022/06/05 21:47:10;;;;;;;2.75;1.35;;;17.20;99.90;;;;;;6163965;23;20219;-78
2022/06/05 21:49:38;;;;;;;2.70;1.20;;;17.20;99.90;;;;;;6163947;23;20018;-77
2022/06/05 21:52:08;;;;;;;4.00;1.25;;;17.30;99.90;;;;;;6164484;23;20302;-78
2022/06/05 21:55:01;;;;;;;3.03;1.38;;;17.30;99.90;;;;;;6137254;23;20242;-77
2022/06/05 21:57:30;;;;;;;3.45;1.33;;;17.40;99.90;;;;;;6163859;23;20001;-78
2022/06/05 21:59:56;;;;;;;3.10;1.30;;;17.50;99.90;;;;;;6138598;23;19997;-77
2022/06/05 22:02:22;;;;;;;1.80;1.17;;;17.50;99.90;;;;;;6163172;23;20048;-77
2022/06/05 22:04:51;;;;;;;;;;;17.50;99.90;;;;;;6139226;23;20002;-79
2022/06/05 22:07:18;;;;;;;3.05;1.30;;;17.50;99.90;;;;;;6138664;23;19911;-78
2022/06/05 22:09:47;;;;;;;9.82;1.42;;;17.40;99.90;;;;;;6138215;23;20005;-77
2022/06/05 22:12:22;;;;;;;2.10;1.05;;;17.30;99.90;;;;;;6163712;23;20083;-77
2022/06/05 22:14:50;;;;;;;2.38;1.20;;;17.30;99.90;;;;;;6163778;23;20001;-77
2022/06/05 22:17:19;;;;;;;2.90;1.40;;;17.10;99.90;;;;;;6163139;23;20018;-76
2022/06/05 22:19:45;;;;;;;3.63;1.58;;;17.10;99.90;;;;;;6163553;23;20195;-77
2022/06/05 22:22:13;;;;;;;2.55;1.33;;;17.10;99.90;;;;;;6139207;23;20001;-77
2022/06/05 22:24:40;;;;;;;4.45;1.60;;;17.10;99.90;;;;;;6165171;23;20009;-78
2022/06/05 22:27:09;;;;;;;4.28;1.80;;;17.00;99.90;;;;;;6165539;23;20330;-77
2022/06/05 22:29:35;;;;;;;3.72;1.67;;;17.00;99.90;;;;;;6164861;23;20057;-77
2022/06/05 22:32:01;;;;;;;2.42;1.45;;;17.00;99.90;;;;;;6164961;23;20017;-77
2022/06/05 22:34:28;;;;;;;3.85;1.83;;;17.10;99.90;;;;;;6165366;23;19997;-77
2022/06/05 22:36:55;;;;;;;2.92;1.77;;;17.10;99.90;;;;;;6165165;23;20068;-78
2022/06/05 22:39:24;;;;;;;4.25;1.80;;;17.00;99.90;;;;;;6165080;23;20005;-78
2022/06/05 22:41:50;;;;;;;2.63;1.55;;;16.90;99.90;;;;;;6165565;23;20284;-78
2022/06/05 22:44:16;;;;;;;3.53;1.65;;;16.90;99.90;;;;;;6165324;23;20005;-78
2022/06/05 22:46:41;;;;;;;7.03;2.72;;;16.90;99.90;;;;;;6163951;23;20014;-77
2022/06/05 22:49:07;;;;;;;4.45;2.03;;;16.80;99.90;;;;;;6139252;23;20012;-78
2022/06/05 22:51:34;;;;;;;3.40;1.88;;;16.80;99.90;;;;;;6164680;23;20321;-76
2022/06/05 22:54:00;;;;;;;3.95;2.20;;;16.70;99.90;;;;;;6165306;23;20008;-76
2022/06/05 22:56:26;;;;;;;3.97;2.03;;;16.70;99.90;;;;;;6138622;23;20009;-78
2022/06/05 22:58:52;;;;;;;3.58;1.70;;;16.60;99.90;;;;;;6164994;23;20136;-76
